sensor_id;sensor_type;location;lat;lon;timestamp;temperature;humidity
34829;DHT22;21042;47.620;12.188;2023-05-29T00:00:49;12.40;99.90
34829;DHT22;21042;47.620;12.188;2023-05-29T00:03:16;12.40;99.90
34829;DHT22;21042;47.620;12.188;2023-05-29T00:05:44;12.40;99.90
34829;DHT22;21042;47.620;12.188;2023-05-29T00:08:11;12.40;99.90
34829;DHT22;21042;47.620;12.188;2023-05-29T00:10:37;12.40;99.90
34829;DHT22;21042;47.620;12.188;2023-05-29T00:13:04;12.40;99.90
34829;DHT22;21042;47.620;12.188;2023-05-29T00:15:33;12.40;99.90
34829;DHT22;21042;47.620;12.188;2023-05-29T00:18:00;12.30;99.90
34829;DHT22;21042;47.620;12.188;2023-05-29T00:20:28;12.30;99.90
34829;DHT22;21042;47.620;12.188;2023-05-29T00:22:55;12.20;99.90
34829;DHT22;21042;47.620;12.188;2023-05-29T00:25:22;12.10;99.90
34829;DHT22;21042;47.620;12.188;2023-05-29T00:27:49;12.00;99.90
34829;DHT22;21042;47.620;12.188;2023-05-29T00:30:16;12.00;99.90
34829;DHT22;21042;47.620;12.188;2023-05-29T00:32:43;11.90;99.90
34829;DHT22;21042;47.620;12.188;2023-05-29T00:35:10;11.90;99.90
34829;DHT22;21042;47.620;12.188;2023-05-29T00:37:37;11.80;99.90
34829;DHT22;21042;47.620;12.188;2023-05-29T00:40:04;11.80;99.90
34829;DHT22;21042;47.620;12.188;2023-05-29T00:42:31;11.80;99.90
34829;DHT22;21042;47.620;12.188;2023-05-29T00:44:58;11.80;99.90
34829;DHT22;21042;47.620;12.188;2023-05-29T00:47:25;11.70;99.90
34829;DHT22;21042;47.620;12.188;2023-05-29T00:52:59;11.70;99.90
34829;DHT22;21042;47.620;12.188;2023-05-29T00:55:29;11.70;99.90
34829;DHT22;21042;47.620;12.188;2023-05-29T00:57:56;11.60;99.90
34829;DHT22;21042;47.620;12.188;2023-05-29T01:00:23;11.60;99.90
34829;DHT22;21042;47.620;12.188;2023-05-29T01:02:50;11.60;99.90
34829;DHT22;21042;47.620;12.188;2023-05-29T01:05:19;11.60;99.90
34829;DHT22;21042;47.620;12.188;2023-05-29T01:07:46;11.60;99.90
34829;DHT22;21042;47.620;12.188;2023-05-29T01:10:14;11.60;99.90
34829;DHT22;21042;47.620;12.188;2023-05-29T01:12:49;11.60;99.90
34829;DHT22;21042;47.620;12.188;2023-05-29T01:21:11;11.60;99.90
34829;DHT22;21042;47.620;12.188;2023-05-29T01:26:58;11.50;99.90
34829;DHT22;21042;47.620;12.188;2023-05-29T01:29:29;11.40;99.90
34829;DHT22;21042;47.620;12.188;2023-05-29T01:32:00;11.40;99.90
34829;DHT22;21042;47.620;12.188;2023-05-29T01:34:30;11.40;99.90
34829;DHT22;21042;47.620;12.188;2023-05-29T01:36:57;11.30;99.90
34829;DHT22;21042;47.620;12.188;2023-05-29T01:39:24;11.30;99.90
34829;DHT22;21042;47.620;12.188;2023-05-29T01:41:52;11.20;99.90
34829;DHT22;21042;47.620;12.188;2023-05-29T01:44:21;11.10;99.90
34829;DHT22;21042;47.620;12.188;2023-05-29T01:46:48;10.90;99.90
34829;DHT22;21042;47.620;12.188;2023-05-29T01:49:16;10.90;99.90
34829;DHT22;21042;47.620;12.188;2023-05-29T01:51:43;10.90;99.90
34829;DHT22;21042;47.620;12.188;2023-05-29T01:54:11;10.90;99.90
34829;DHT22;21042;47.620;12.188;2023-05-29T01:56:38;10.90;99.90
34829;DHT22;21042;47.620;12.188;2023-05-29T01:59:05;10.90;99.90
34829;DHT22;21042;47.620;12.188;2023-05-29T02:01:33;10.90;99.90
34829;DHT22;21042;47.620;12.188;2023-05-29T02:04:00;10.90;99.90
34829;DHT22;21042;47.620;12.188;2023-05-29T02:06:27;10.80;99.90
34829;DHT22;21042;47.620;12.188;2023-05-29T02:08:53;10.90;99.90
34829;DHT22;21042;47.620;12.188;2023-05-29T02:11:20;10.80;99.90
34829;DHT22;21042;47.620;12.188;2023-05-29T02:13:48;10.80;99.90
34829;DHT22;21042;47.620;12.188;2023-05-29T02:16:15;10.80;99.90
34829;DHT22;21042;47.620;12.188;2023-05-29T02:18:42;10.80;99.90
34829;DHT22;21042;47.620;12.188;2023-05-29T02:21:10;10.90;99.90
34829;DHT22;21042;47.620;12.188;2023-05-29T02:23:38;10.90;99.90
34829;DHT22;21042;47.620;12.188;2023-05-29T02:26:05;10.90;99.90
34829;DHT22;21042;47.620;12.188;2023-05-29T02:28:31;10.90;99.90
34829;DHT22;21042;47.620;12.188;2023-05-29T02:30:58;10.90;99.90
34829;DHT22;21042;47.620;12.188;2023-05-29T02:33:25;10.90;99.90
34829;DHT22;21042;47.620;12.188;2023-05-29T02:35:53;10.90;99.90
34829;DHT22;21042;47.620;12.188;2023-05-29T02:38:20;10.90;99.90
34829;DHT22;21042;47.620;12.188;2023-05-29T02:40:47;10.90;99.90
34829;DHT22;21042;47.620;12.188;2023-05-29T02:43:14;10.90;99.90
34829;DHT22;21042;47.620;12.188;2023-05-29T02:45:41;10.80;99.90
34829;DHT22;21042;47.620;12.188;2023-05-29T02:48:08;10.90;99.90
34829;DHT22;21042;47.620;12.188;2023-05-29T02:50:36;10.80;99.90
34829;DHT22;21042;47.620;12.188;2023-05-29T02:53:03;10.80;99.90
34829;DHT22;21042;47.620;12.188;2023-05-29T02:55:29;10.80;99.90
34829;DHT22;21042;47.620;12.188;2023-05-29T02:57:59;10.70;99.90
34829;DHT22;21042;47.620;12.188;2023-05-29T03:00:26;10.70;99.90
34829;DHT22;21042;47.620;12.188;2023-05-29T03:02:57;10.80;99.90
34829;DHT22;21042;47.620;12.188;2023-05-29T03:05:24;10.80;99.90
34829;DHT22;21042;47.620;12.188;2023-05-29T03:07:52;10.70;99.90
34829;DHT22;21042;47.620;12.188;2023-05-29T03:10:19;10.70;99.90
34829;DHT22;21042;47.620;12.188;2023-05-29T03:12:47;10.60;99.90
34829;DHT22;21042;47.620;12.188;2023-05-29T03:15:14;10.60;99.90
34829;DHT22;21042;47.620;12.188;2023-05-29T03:17:41;10.60;99.90
34829;DHT22;21042;47.620;12.188;2023-05-29T03:20:12;10.50;99.90
34829;DHT22;21042;47.620;12.188;2023-05-29T03:22:39;10.50;99.90
34829;DHT22;21042;47.620;12.188;2023-05-29T03:25:08;10.40;99.90
34829;DHT22;21042;47.620;12.188;2023-05-29T03:27:35;10.40;99.90
34829;DHT22;21042;47.620;12.188;2023-05-29T03:30:11;10.40;99.90
34829;DHT22;21042;47.620;12.188;2023-05-29T03:32:38;10.30;99.90
34829;DHT22;21042;47.620;12.188;2023-05-29T03:35:07;10.30;99.90
34829;DHT22;21042;47.620;12.188;2023-05-29T03:37:36;10.30;99.90
34829;DHT22;21042;47.620;12.188;2023-05-29T03:40:03;10.30;99.90
34829;DHT22;21042;47.620;12.188;2023-05-29T03:42:31;10.30;99.90
34829;DHT22;21042;47.620;12.188;2023-05-29T03:44:59;10.20;99.90
34829;DHT22;21042;47.620;12.188;2023-05-29T03:47:27;10.10;99.90
34829;DHT22;21042;47.620;12.188;2023-05-29T03:49:54;10.00;99.90
34829;DHT22;21042;47.620;12.188;2023-05-29T03:52:22;10.00;99.90
34829;DHT22;21042;47.620;12.188;2023-05-29T03:54:49;10.00;99.90
34829;DHT22;21042;47.620;12.188;2023-05-29T03:57:16;10.00;99.90
34829;DHT22;21042;47.620;12.188;2023-05-29T03:59:43;10.00;99.90
34829;DHT22;21042;47.620;12.188;2023-05-29T04:02:10;10.10;99.90
34829;DHT22;21042;47.620;12.188;2023-05-29T04:04:40;10.20;99.90
34829;DHT22;21042;47.620;12.188;2023-05-29T04:07:07;10.20;99.90
34829;DHT22;21042;47.620;12.188;2023-05-29T04:09:34;10.30;99.90
34829;DHT22;21042;47.620;12.188;2023-05-29T04:12:01;10.30;99.90
34829;DHT22;21042;47.620;12.188;2023-05-29T04:14:33;10.40;99.90
34829;DHT22;21042;47.620;12.188;2023-05-29T04:16:59;10.40;99.90
34829;DHT22;21042;47.620;12.188;2023-05-29T04:19:26;10.40;99.90
34829;DHT22;21042;47.620;12.188;2023-05-29T04:21:53;10.50;99.90
34829;DHT22;21042;47.620;12.188;2023-05-29T04:24:20;10.50;99.90
34829;DHT22;21042;47.620;12.188;2023-05-29T04:26:47;10.60;99.90
34829;DHT22;21042;47.620;12.188;2023-05-29T04:29:14;10.70;99.90
34829;DHT22;21042;47.620;12.188;2023-05-29T04:31:44;10.80;99.90
34829;DHT22;21042;47.620;12.188;2023-05-29T04:34:11;10.80;99.90
34829;DHT22;21042;47.620;12.188;2023-05-29T04:36:38;10.90;99.90
34829;DHT22;21042;47.620;12.188;2023-05-29T04:39:09;11.00;99.90
34829;DHT22;21042;47.620;12.188;2023-05-29T04:41:36;11.10;99.90
34829;DHT22;21042;47.620;12.188;2023-05-29T04:44:07;11.00;99.90
34829;DHT22;21042;47.620;12.188;2023-05-29T04:46:42;11.00;99.90
34829;DHT22;21042;47.620;12.188;2023-05-29T04:49:11;11.10;99.90
34829;DHT22;21042;47.620;12.188;2023-05-29T04:51:39;11.20;99.90
34829;DHT22;21042;47.620;12.188;2023-05-29T04:54:10;11.30;99.90
34829;DHT22;21042;47.620;12.188;2023-05-29T04:56:39;11.40;99.90
34829;DHT22;21042;47.620;12.188;2023-05-29T04:59:08;11.50;99.90
34829;DHT22;21042;47.620;12.188;2023-05-29T05:01:35;11.50;99.90
34829;DHT22;21042;47.620;12.188;2023-05-29T05:04:02;11.60;99.90
34829;DHT22;21042;47.620;12.188;2023-05-29T05:06:29;11.70;99.90
34829;DHT22;21042;47.620;12.188;2023-05-29T05:08:57;11.80;99.90
34829;DHT22;21042;47.620;12.188;2023-05-29T05:11:24;11.80;99.90
34829;DHT22;21042;47.620;12.188;2023-05-29T05:13:51;11.90;99.90
34829;DHT22;21042;47.620;12.188;2023-05-29T05:16:18;11.90;99.90
34829;DHT22;21042;47.620;12.188;2023-05-29T05:18:45;12.00;99.90
34829;DHT22;21042;47.620;12.188;2023-05-29T05:21:12;12.10;99.90
34829;DHT22;21042;47.620;12.188;2023-05-29T05:23:40;12.10;99.90
34829;DHT22;21042;47.620;12.188;2023-05-29T05:26:24;12.20;99.90
34829;DHT22;21042;47.620;12.188;2023-05-29T05:28:52;12.30;99.90
34829;DHT22;21042;47.620;12.188;2023-05-29T05:31:19;12.40;99.90
34829;DHT22;21042;47.620;12.188;2023-05-29T05:33:46;12.50;99.90
34829;DHT22;21042;47.620;12.188;2023-05-29T05:36:13;12.60;99.90
34829;DHT22;21042;47.620;12.188;2023-05-29T05:38:41;12.60;99.90
34829;DHT22;21042;47.620;12.188;2023-05-29T05:41:07;12.70;99.90
34829;DHT22;21042;47.620;12.188;2023-05-29T05:43:34;12.70;99.90
34829;DHT22;21042;47.620;12.188;2023-05-29T05:46:12;12.70;99.90
34829;DHT22;21042;47.620;12.188;2023-05-29T05:48:40;12.70;99.90
34829;DHT22;21042;47.620;12.188;2023-05-29T05:51:07;12.80;99.90
34829;DHT22;21042;47.620;12.188;2023-05-29T05:53:34;12.80;99.90
34829;DHT22;21042;47.620;12.188;2023-05-29T05:56:01;12.90;99.90
34829;DHT22;21042;47.620;12.188;2023-05-29T05:58:29;12.90;99.90
34829;DHT22;21042;47.620;12.188;2023-05-29T06:00:56;13.00;99.90
34829;DHT22;21042;47.620;12.188;2023-05-29T06:03:25;13.10;99.90
34829;DHT22;21042;47.620;12.188;2023-05-29T06:06:00;13.20;99.90
34829;DHT22;21042;47.620;12.188;2023-05-29T06:08:28;13.20;99.90
34829;DHT22;21042;47.620;12.188;2023-05-29T06:10:55;13.30;99.90
34829;DHT22;21042;47.620;12.188;2023-05-29T06:13:22;13.30;99.90
34829;DHT22;21042;47.620;12.188;2023-05-29T06:15:55;13.30;99.90
34829;DHT22;21042;47.620;12.188;2023-05-29T06:18:22;13.40;99.90
34829;DHT22;21042;47.620;12.188;2023-05-29T06:20:49;13.50;99.90
34829;DHT22;21042;47.620;12.188;2023-05-29T06:23:17;13.60;99.90
34829;DHT22;21042;47.620;12.188;2023-05-29T06:25:44;13.70;99.90
34829;DHT22;21042;47.620;12.188;2023-05-29T06:28:11;13.80;99.90
34829;DHT22;21042;47.620;12.188;2023-05-29T06:30:39;13.90;99.90
34829;DHT22;21042;47.620;12.188;2023-05-29T06:33:07;14.10;99.90
34829;DHT22;21042;47.620;12.188;2023-05-29T06:35:36;14.10;99.90
34829;DHT22;21042;47.620;12.188;2023-05-29T06:38:03;14.20;99.90
34829;DHT22;21042;47.620;12.188;2023-05-29T06:40:30;14.40;99.90
34829;DHT22;21042;47.620;12.188;2023-05-29T06:42:57;14.60;99.90
34829;DHT22;21042;47.620;12.188;2023-05-29T06:45:45;14.80;99.90
34829;DHT22;21042;47.620;12.188;2023-05-29T06:48:12;15.00;99.90
34829;DHT22;21042;47.620;12.188;2023-05-29T06:50:40;15.10;99.90
34829;DHT22;21042;47.620;12.188;2023-05-29T06:53:35;15.10;99.90
34829;DHT22;21042;47.620;12.188;2023-05-29T06:56:02;15.20;99.90
34829;DHT22;21042;47.620;12.188;2023-05-29T06:58:30;15.40;99.90
34829;DHT22;21042;47.620;12.188;2023-05-29T07:00:58;15.50;99.90
34829;DHT22;21042;47.620;12.188;2023-05-29T07:03:31;15.60;99.90
34829;DHT22;21042;47.620;12.188;2023-05-29T07:06:00;15.70;99.90
34829;DHT22;21042;47.620;12.188;2023-05-29T07:08:27;15.80;99.90
34829;DHT22;21042;47.620;12.188;2023-05-29T07:10:55;16.00;99.90
34829;DHT22;21042;47.620;12.188;2023-05-29T07:13:25;16.00;99.90
34829;DHT22;21042;47.620;12.188;2023-05-29T07:15:52;16.20;99.90
34829;DHT22;21042;47.620;12.188;2023-05-29T07:18:24;16.30;99.90
34829;DHT22;21042;47.620;12.188;2023-05-29T07:20:51;16.30;99.90
34829;DHT22;21042;47.620;12.188;2023-05-29T07:23:20;16.50;99.90
34829;DHT22;21042;47.620;12.188;2023-05-29T07:25:47;16.70;99.90
34829;DHT22;21042;47.620;12.188;2023-05-29T07:28:14;16.80;99.90
34829;DHT22;21042;47.620;12.188;2023-05-29T07:30:47;17.00;99.90
34829;DHT22;21042;47.620;12.188;2023-05-29T07:33:13;17.10;99.90
34829;DHT22;21042;47.620;12.188;2023-05-29T07:35:40;17.10;99.90
34829;DHT22;21042;47.620;12.188;2023-05-29T07:38:08;17.20;99.90
34829;DHT22;21042;47.620;12.188;2023-05-29T07:40:35;17.30;99.90
34829;DHT22;21042;47.620;12.188;2023-05-29T07:43:20;17.50;99.90
34829;DHT22;21042;47.620;12.188;2023-05-29T07:45:53;17.60;99.90
34829;DHT22;21042;47.620;12.188;2023-05-29T07:48:20;17.80;99.90
34829;DHT22;21042;47.620;12.188;2023-05-29T07:50:49;17.80;99.90
34829;DHT22;21042;47.620;12.188;2023-05-29T07:53:17;17.90;99.90
34829;DHT22;21042;47.620;12.188;2023-05-29T07:55:46;18.00;99.90
34829;DHT22;21042;47.620;12.188;2023-05-29T07:58:13;18.10;99.90
34829;DHT22;21042;47.620;12.188;2023-05-29T08:00:40;18.10;99.90
34829;DHT22;21042;47.620;12.188;2023-05-29T08:03:08;18.40;99.90
34829;DHT22;21042;47.620;12.188;2023-05-29T08:05:53;18.20;99.90
34829;DHT22;21042;47.620;12.188;2023-05-29T08:08:21;18.40;99.90
34829;DHT22;21042;47.620;12.188;2023-05-29T08:10:53;18.50;99.90
34829;DHT22;21042;47.620;12.188;2023-05-29T08:13:20;18.60;99.90
34829;DHT22;21042;47.620;12.188;2023-05-29T08:15:47;18.70;99.90
34829;DHT22;21042;47.620;12.188;2023-05-29T08:18:14;18.70;99.90
34829;DHT22;21042;47.620;12.188;2023-05-29T08:20:41;18.70;99.90
34829;DHT22;21042;47.620;12.188;2023-05-29T08:23:09;18.80;99.90
34829;DHT22;21042;47.620;12.188;2023-05-29T08:25:36;18.90;99.90
34829;DHT22;21042;47.620;12.188;2023-05-29T08:28:02;19.00;99.90
34829;DHT22;21042;47.620;12.188;2023-05-29T08:30:29;19.00;99.90
34829;DHT22;21042;47.620;12.188;2023-05-29T08:32:56;19.20;99.90
34829;DHT22;21042;47.620;12.188;2023-05-29T08:35:23;19.40;99.90
34829;DHT22;21042;47.620;12.188;2023-05-29T08:37:49;19.50;99.90
34829;DHT22;21042;47.620;12.188;2023-05-29T08:40:16;19.60;99.90
34829;DHT22;21042;47.620;12.188;2023-05-29T08:42:56;19.50;99.90
34829;DHT22;21042;47.620;12.188;2023-05-29T08:45:24;19.60;99.90
34829;DHT22;21042;47.620;12.188;2023-05-29T08:47:53;19.60;99.90
34829;DHT22;21042;47.620;12.188;2023-05-29T08:50:21;19.60;99.90
34829;DHT22;21042;47.620;12.188;2023-05-29T08:52:48;19.70;99.90
34829;DHT22;21042;47.620;12.188;2023-05-29T08:55:15;19.70;99.90
34829;DHT22;21042;47.620;12.188;2023-05-29T08:57:43;19.70;99.90
34829;DHT22;21042;47.620;12.188;2023-05-29T09:00:11;19.70;99.90
34829;DHT22;21042;47.620;12.188;2023-05-29T09:02:42;19.80;99.90
34829;DHT22;21042;47.620;12.188;2023-05-29T09:05:12;19.90;99.90
34829;DHT22;21042;47.620;12.188;2023-05-29T09:07:40;20.00;99.90
34829;DHT22;21042;47.620;12.188;2023-05-29T09:10:08;20.10;99.90
34829;DHT22;21042;47.620;12.188;2023-05-29T09:12:35;20.10;99.90
34829;DHT22;21042;47.620;12.188;2023-05-29T09:15:05;20.10;99.90
34829;DHT22;21042;47.620;12.188;2023-05-29T09:17:34;20.00;99.90
34829;DHT22;21042;47.620;12.188;2023-05-29T09:20:01;19.90;99.90
34829;DHT22;21042;47.620;12.188;2023-05-29T09:22:32;20.10;99.90
34829;DHT22;21042;47.620;12.188;2023-05-29T09:24:58;20.40;99.90
34829;DHT22;21042;47.620;12.188;2023-05-29T09:27:26;20.50;99.90
34829;DHT22;21042;47.620;12.188;2023-05-29T09:29:53;20.50;99.90
34829;DHT22;21042;47.620;12.188;2023-05-29T09:32:20;20.40;99.90
34829;DHT22;21042;47.620;12.188;2023-05-29T09:34:47;20.40;99.90
34829;DHT22;21042;47.620;12.188;2023-05-29T09:37:14;20.50;99.90
34829;DHT22;21042;47.620;12.188;2023-05-29T09:39:50;20.40;99.90
34829;DHT22;21042;47.620;12.188;2023-05-29T09:42:20;20.40;99.90
34829;DHT22;21042;47.620;12.188;2023-05-29T09:44:51;20.50;99.90
34829;DHT22;21042;47.620;12.188;2023-05-29T09:47:19;20.50;99.90
34829;DHT22;21042;47.620;12.188;2023-05-29T09:49:46;20.60;99.90
34829;DHT22;21042;47.620;12.188;2023-05-29T09:52:13;20.80;99.90
34829;DHT22;21042;47.620;12.188;2023-05-29T09:54:43;20.90;99.90
34829;DHT22;21042;47.620;12.188;2023-05-29T09:57:14;20.90;99.90
34829;DHT22;21042;47.620;12.188;2023-05-29T09:59:44;21.10;99.90
34829;DHT22;21042;47.620;12.188;2023-05-29T10:02:14;21.20;99.90
34829;DHT22;21042;47.620;12.188;2023-05-29T10:04:42;21.30;99.90
34829;DHT22;21042;47.620;12.188;2023-05-29T10:07:20;21.30;99.90
34829;DHT22;21042;47.620;12.188;2023-05-29T10:09:55;21.30;99.90
34829;DHT22;21042;47.620;12.188;2023-05-29T10:12:26;21.40;99.90
34829;DHT22;21042;47.620;12.188;2023-05-29T10:14:57;21.40;99.90
34829;DHT22;21042;47.620;12.188;2023-05-29T10:17:30;21.40;99.90
34829;DHT22;21042;47.620;12.188;2023-05-29T10:20:01;21.30;99.90
34829;DHT22;21042;47.620;12.188;2023-05-29T10:22:31;21.40;99.90
34829;DHT22;21042;47.620;12.188;2023-05-29T10:24:58;21.40;99.90
34829;DHT22;21042;47.620;12.188;2023-05-29T10:27:26;21.40;99.90
34829;DHT22;21042;47.620;12.188;2023-05-29T10:35:38;21.90;99.90
34829;DHT22;21042;47.620;12.188;2023-05-29T10:38:15;21.90;99.90
34829;DHT22;21042;47.620;12.188;2023-05-29T10:40:43;21.90;99.90
34829;DHT22;21042;47.620;12.188;2023-05-29T10:43:30;22.00;99.90
34829;DHT22;21042;47.620;12.188;2023-05-29T10:45:58;22.00;98.80
34829;DHT22;21042;47.620;12.188;2023-05-29T10:50:55;22.20;98.80
34829;DHT22;21042;47.620;12.188;2023-05-29T10:53:31;22.30;99.90
34829;DHT22;21042;47.620;12.188;2023-05-29T10:56:01;22.30;98.60
34829;DHT22;21042;47.620;12.188;2023-05-29T10:58:30;22.20;97.80
34829;DHT22;21042;47.620;12.188;2023-05-29T11:00:57;22.30;97.00
34829;DHT22;21042;47.620;12.188;2023-05-29T11:03:30;22.30;97.50
34829;DHT22;21042;47.620;12.188;2023-05-29T11:06:05;22.50;96.40
34829;DHT22;21042;47.620;12.188;2023-05-29T11:08:34;22.50;95.80
34829;DHT22;21042;47.620;12.188;2023-05-29T11:11:03;22.50;95.80
34829;DHT22;21042;47.620;12.188;2023-05-29T11:13:34;22.60;96.40
34829;DHT22;21042;47.620;12.188;2023-05-29T11:18:52;23.00;97.70
34829;DHT22;21042;47.620;12.188;2023-05-29T11:24:02;22.80;95.10
34829;DHT22;21042;47.620;12.188;2023-05-29T11:26:34;22.80;95.80
34829;DHT22;21042;47.620;12.188;2023-05-29T11:29:04;22.90;96.20
34829;DHT22;21042;47.620;12.188;2023-05-29T11:31:33;23.10;95.70
34829;DHT22;21042;47.620;12.188;2023-05-29T11:34:03;23.20;96.00
34829;DHT22;21042;47.620;12.188;2023-05-29T11:36:33;23.20;95.70
34829;DHT22;21042;47.620;12.188;2023-05-29T11:39:01;23.10;95.60
34829;DHT22;21042;47.620;12.188;2023-05-29T11:41:27;23.20;95.30
34829;DHT22;21042;47.620;12.188;2023-05-29T11:44:01;23.20;95.90
34829;DHT22;21042;47.620;12.188;2023-05-29T11:46:32;23.40;95.40
34829;DHT22;21042;47.620;12.188;2023-05-29T11:49:01;23.50;95.60
34829;DHT22;21042;47.620;12.188;2023-05-29T11:51:28;23.50;94.90
34829;DHT22;21042;47.620;12.188;2023-05-29T11:53:54;23.30;94.80
34829;DHT22;21042;47.620;12.188;2023-05-29T11:56:26;23.40;95.20
34829;DHT22;21042;47.620;12.188;2023-05-29T11:58:54;23.50;95.00
34829;DHT22;21042;47.620;12.188;2023-05-29T12:01:24;23.50;95.50
34829;DHT22;21042;47.620;12.188;2023-05-29T12:03:52;23.70;93.50
34829;DHT22;21042;47.620;12.188;2023-05-29T12:06:35;23.60;94.80
34829;DHT22;21042;47.620;12.188;2023-05-29T12:09:05;23.50;93.30
34829;DHT22;21042;47.620;12.188;2023-05-29T12:11:32;23.40;93.30
34829;DHT22;21042;47.620;12.188;2023-05-29T12:14:01;23.40;94.00
34829;DHT22;21042;47.620;12.188;2023-05-29T12:16:30;23.40;93.90
34829;DHT22;21042;47.620;12.188;2023-05-29T12:18:59;23.30;93.70
34829;DHT22;21042;47.620;12.188;2023-05-29T12:21:27;23.30;93.50
34829;DHT22;21042;47.620;12.188;2023-05-29T12:23:54;23.30;92.60
34829;DHT22;21042;47.620;12.188;2023-05-29T12:26:39;23.50;93.30
34829;DHT22;21042;47.620;12.188;2023-05-29T12:29:06;23.60;93.20
34829;DHT22;21042;47.620;12.188;2023-05-29T12:31:33;23.50;91.90
34829;DHT22;21042;47.620;12.188;2023-05-29T12:34:11;23.50;93.50
34829;DHT22;21042;47.620;12.188;2023-05-29T12:36:42;23.50;91.80
34829;DHT22;21042;47.620;12.188;2023-05-29T12:39:09;23.60;92.70
34829;DHT22;21042;47.620;12.188;2023-05-29T12:41:37;23.50;92.30
34829;DHT22;21042;47.620;12.188;2023-05-29T12:44:05;23.60;92.90
34829;DHT22;21042;47.620;12.188;2023-05-29T12:46:38;23.80;92.20
34829;DHT22;21042;47.620;12.188;2023-05-29T12:49:14;24.00;91.90
34829;DHT22;21042;47.620;12.188;2023-05-29T12:51:43;24.00;90.50
34829;DHT22;21042;47.620;12.188;2023-05-29T12:54:11;23.90;90.10
34829;DHT22;21042;47.620;12.188;2023-05-29T12:56:38;23.80;90.90
34829;DHT22;21042;47.620;12.188;2023-05-29T12:59:09;23.70;91.50
34829;DHT22;21042;47.620;12.188;2023-05-29T13:01:37;23.60;90.50
34829;DHT22;21042;47.620;12.188;2023-05-29T13:04:06;23.80;91.40
34829;DHT22;21042;47.620;12.188;2023-05-29T13:06:37;24.00;91.60
34829;DHT22;21042;47.620;12.188;2023-05-29T13:09:05;24.10;90.50
34829;DHT22;21042;47.620;12.188;2023-05-29T13:11:33;24.00;88.70
34829;DHT22;21042;47.620;12.188;2023-05-29T13:14:02;23.90;90.40
34829;DHT22;21042;47.620;12.188;2023-05-29T13:16:28;24.00;87.30
34829;DHT22;21042;47.620;12.188;2023-05-29T13:18:55;24.00;90.50
34829;DHT22;21042;47.620;12.188;2023-05-29T13:21:22;24.00;89.20
34829;DHT22;21042;47.620;12.188;2023-05-29T13:23:49;23.90;86.60
34829;DHT22;21042;47.620;12.188;2023-05-29T13:26:15;24.10;88.90
34829;DHT22;21042;47.620;12.188;2023-05-29T13:28:42;24.20;89.90
34829;DHT22;21042;47.620;12.188;2023-05-29T13:31:09;24.20;88.10
34829;DHT22;21042;47.620;12.188;2023-05-29T13:33:36;24.20;87.80
34829;DHT22;21042;47.620;12.188;2023-05-29T13:36:02;24.10;86.20
34829;DHT22;21042;47.620;12.188;2023-05-29T13:38:29;24.30;87.50
34829;DHT22;21042;47.620;12.188;2023-05-29T13:40:56;24.20;84.40
34829;DHT22;21042;47.620;12.188;2023-05-29T13:43:22;24.30;83.50
34829;DHT22;21042;47.620;12.188;2023-05-29T13:46:05;24.30;83.30
34829;DHT22;21042;47.620;12.188;2023-05-29T13:48:32;24.20;81.70
34829;DHT22;21042;47.620;12.188;2023-05-29T13:51:00;24.40;81.20
34829;DHT22;21042;47.620;12.188;2023-05-29T13:53:27;24.40;82.80
34829;DHT22;21042;47.620;12.188;2023-05-29T13:55:54;24.30;79.80
34829;DHT22;21042;47.620;12.188;2023-05-29T13:58:21;24.20;82.70
34829;DHT22;21042;47.620;12.188;2023-05-29T14:00:47;24.20;82.30
34829;DHT22;21042;47.620;12.188;2023-05-29T14:03:14;24.20;76.80
34829;DHT22;21042;47.620;12.188;2023-05-29T14:05:41;24.30;72.80
34829;DHT22;21042;47.620;12.188;2023-05-29T14:08:08;24.30;78.20
34829;DHT22;21042;47.620;12.188;2023-05-29T14:10:34;24.30;78.70
34829;DHT22;21042;47.620;12.188;2023-05-29T14:13:01;24.50;78.90
34829;DHT22;21042;47.620;12.188;2023-05-29T14:15:28;24.60;78.40
34829;DHT22;21042;47.620;12.188;2023-05-29T14:17:55;24.50;75.70
34829;DHT22;21042;47.620;12.188;2023-05-29T14:20:21;24.50;75.80
34829;DHT22;21042;47.620;12.188;2023-05-29T14:22:48;24.50;73.90
34829;DHT22;21042;47.620;12.188;2023-05-29T14:25:15;24.60;76.20
34829;DHT22;21042;47.620;12.188;2023-05-29T14:27:42;24.70;72.20
34829;DHT22;21042;47.620;12.188;2023-05-29T14:30:09;24.60;75.10
34829;DHT22;21042;47.620;12.188;2023-05-29T14:32:35;24.90;72.20
34829;DHT22;21042;47.620;12.188;2023-05-29T14:35:02;25.00;72.50
34829;DHT22;21042;47.620;12.188;2023-05-29T14:37:29;25.00;74.60
34829;DHT22;21042;47.620;12.188;2023-05-29T14:39:56;25.00;78.60
34829;DHT22;21042;47.620;12.188;2023-05-29T14:42:23;24.90;72.20
34829;DHT22;21042;47.620;12.188;2023-05-29T14:44:49;24.70;73.20
34829;DHT22;21042;47.620;12.188;2023-05-29T14:47:16;24.90;73.40
34829;DHT22;21042;47.620;12.188;2023-05-29T14:49:45;24.90;71.00
34829;DHT22;21042;47.620;12.188;2023-05-29T14:52:12;24.80;72.30
34829;DHT22;21042;47.620;12.188;2023-05-29T14:54:38;24.70;74.20
34829;DHT22;21042;47.620;12.188;2023-05-29T14:57:05;24.90;75.90
34829;DHT22;21042;47.620;12.188;2023-05-29T14:59:32;25.10;71.50
34829;DHT22;21042;47.620;12.188;2023-05-29T15:01:59;25.20;73.50
34829;DHT22;21042;47.620;12.188;2023-05-29T15:04:26;25.10;71.50
34829;DHT22;21042;47.620;12.188;2023-05-29T15:06:53;25.00;73.10
34829;DHT22;21042;47.620;12.188;2023-05-29T15:09:31;25.00;72.10
34829;DHT22;21042;47.620;12.188;2023-05-29T15:11:59;25.10;73.20
34829;DHT22;21042;47.620;12.188;2023-05-29T15:14:26;25.20;75.00
34829;DHT22;21042;47.620;12.188;2023-05-29T15:16:53;25.10;72.10
34829;DHT22;21042;47.620;12.188;2023-05-29T15:19:22;25.00;71.60
34829;DHT22;21042;47.620;12.188;2023-05-29T15:21:48;24.90;73.80
34829;DHT22;21042;47.620;12.188;2023-05-29T15:24:15;24.80;76.20
34829;DHT22;21042;47.620;12.188;2023-05-29T15:26:42;24.90;76.40
34829;DHT22;21042;47.620;12.188;2023-05-29T15:29:08;24.90;77.00
34829;DHT22;21042;47.620;12.188;2023-05-29T15:31:36;24.70;76.20
34829;DHT22;21042;47.620;12.188;2023-05-29T15:34:03;24.50;75.50
34829;DHT22;21042;47.620;12.188;2023-05-29T15:36:29;24.40;75.70
34829;DHT22;21042;47.620;12.188;2023-05-29T15:38:56;24.40;74.30
34829;DHT22;21042;47.620;12.188;2023-05-29T15:41:23;24.50;75.70
34829;DHT22;21042;47.620;12.188;2023-05-29T15:43:55;24.50;75.10
34829;DHT22;21042;47.620;12.188;2023-05-29T15:46:29;24.40;78.80
34829;DHT22;21042;47.620;12.188;2023-05-29T15:48:56;24.60;75.40